Flight Track Log - Related Links

Times and Time Zones

All times are in EDT time to prevent confusion due to time zone crossing. See the N777NC flight status page for this flight to view local times or setup timezone preferences in your user account.

Time Position Orientation Groundspeed Altitude Reporting Facility
EDT Latitude Longitude Course Direction KTS MPH feet Rate Location/Type
Sun 07:32:01 AM 33.6500 -84.4000 349° North 165 190 2,200  Level Atlanta TRACON
Sun 07:33:01 AM 33.6667 -84.3333 73° East 245 282 3,300 1,769 Climbing Atlanta TRACON
Sun 07:34:00 AM 33.9982 -84.5132 349° North  Level FlightAware Approximate
Sun 07:34:54 AM 33.7981 -84.2939 14° North 254 292 7,300  Level Atlanta Center
Sun 07:35:00 AM 34.1134 -84.5419 347° North  Level FlightAware Approximate
Sun 07:35:54 AM 33.8689 -84.3489 327° Northwest 303 349 9,600  Level Atlanta Center
Sun 07:36:00 AM 34.2332 -84.5742 349° North  Level FlightAware Approximate
Sun 07:36:54 AM 33.9397 -84.4044 327° Northwest 303 349 11,800  Level Atlanta Center
Sun 07:37:00 AM 34.3539 -84.6015 349° North  Level FlightAware Approximate
Sun 07:37:54 AM 34.0294 -84.4500 337° Northwest 316 364 12,700  Level Atlanta Center
Sun 07:38:54 AM 34.1336 -84.4781 347° North 360 414 14,200 1,450 Climbing Atlanta Center
Sun 07:39:54 AM 34.2464 -84.5061 348° North 394 453 15,600 1,600 Climbing Atlanta Center
Sun 07:40:54 AM 34.3650 -84.5394 347° North 418 481 17,400 2,450 Climbing Atlanta Center
Sun 07:41:54 AM 34.4797 -84.5681 348° North 422 486 20,500 2,200 Climbing Atlanta Center
Sun 07:42:54 AM 34.5881 -84.6089 343° North 412 474 21,800 1,250 Climbing Atlanta Center
Sun 07:43:54 AM 34.6839 -84.6425 344° North 412 474 23,000 1,100 Climbing Atlanta Center
Sun 07:44:54 AM 34.8028 -84.6764 347° North 412 474 24,000 1,000 Climbing Atlanta Center
Sun 07:45:54 AM 34.9214 -84.7150 345° North 423 487 25,000 850 Climbing Atlanta Center
Sun 07:46:54 AM 35.0444 -84.7492 347° North 435 501 25,700 750 Climbing Atlanta Center
Sun 07:47:54 AM 35.1694 -84.7806 348° North 451 519 26,500 800 Climbing Atlanta Center
Sun 07:48:54 AM 35.2944 -84.8200 346° North 451 519 27,300 750 Climbing Atlanta Center
Sun 07:49:54 AM 35.4192 -84.8644 344° North 456 525 28,000 500 Climbing Atlanta Center
Sun 07:50:54 AM 35.5461 -84.9067 345° North 461 531 28,300 500 Climbing Atlanta Center
Sun 07:51:54 AM 35.6772 -84.9592 342° North 472 543 29,000 709 Climbing Atlanta Center
Sun 07:54:17 AM 36.0058 -85.0892 342° North 504 580 30,700 790 Climbing Indianapolis Center
Sun 07:55:19 AM 36.1406 -85.1333 345° North 498 573 31,700 878 Climbing Indianapolis Center
Sun 07:56:20 AM 36.2781 -85.1714 347° North 502 578 32,500 836 Climbing Indianapolis Center
Sun 07:57:21 AM 36.4175 -85.1917 353° North 503 579 33,400 738 Climbing Indianapolis Center
Sun 07:58:22 AM 36.5572 -85.2167 352° North 504 580 34,000 295 Climbing Indianapolis Center
Sun 07:59:23 AM 36.6983 -85.2364 354° North 510 587 34,000  Level Indianapolis Center
Sun 08:00:24 AM 36.8403 -85.2628 352° North 513 590 34,000  Level Indianapolis Center
Sun 08:01:25 AM 36.9811 -85.2800 354° North 510 587 34,000  Level Indianapolis Center
Sun 08:02:26 AM 37.1197 -85.3125 349° North 490 564 34,000  Level Indianapolis Center
Sun 08:03:27 AM 37.2517 -85.3544 346° North 486 559 34,000  Level Indianapolis Center
Sun 08:04:29 AM 37.3811 -85.4075 342° North 487 560 34,000  Level Indianapolis Center
Sun 08:05:30 AM 37.5147 -85.4511 345° North 492 566 34,000  Level Indianapolis Center
Sun 08:06:31 AM 37.6486 -85.4950 345° North 495 570 34,000  Level Indianapolis Center
Sun 08:07:32 AM 37.8106 -85.5283 351° North 503 579 34,000  Level Indianapolis Center
Sun 08:08:33 AM 37.9436 -85.5539 351° North 515 593 34,000  Level Indianapolis Center
Sun 08:09:34 AM 38.0847 -85.5764 353° North 513 590 34,000  Level Indianapolis Center
Sun 08:10:35 AM 38.2258 -85.5986 353° North 511 588 34,000  Level Indianapolis Center
Sun 08:11:36 AM 38.3722 -85.6000 360° North 526 605 34,000  Level Indianapolis Center
Sun 08:12:38 AM 38.5197 -85.6044 359° North 526 605 34,000  Level Indianapolis Center
Sun 08:13:39 AM 38.6647 -85.6042 360° North 526 605 34,000 -344 Level Indianapolis Center
Sun 08:14:40 AM 38.8119 -85.6008 North 531 611 33,300 -738 Descending Indianapolis Center
Sun 08:15:41 AM 38.9858 -85.6275 353° North 526 605 32,500 -836 Descending Indianapolis Center
Sun 08:16:42 AM 39.1303 -85.6472 354° North 525 604 31,600 -885 Descending Indianapolis Center
Sun 08:17:43 AM 39.2753 -85.6475 360° North 524 603 30,700 -780 Descending Indianapolis Center
Sun 08:18:45 AM 39.4167 -85.6492 359° North 515 593 30,000 -732 Descending Indianapolis Center
Sun 08:19:46 AM 39.5547 -85.6589 357° North 504 580 29,200 -1,033 Descending Indianapolis Center
Sun 08:20:47 AM 39.6850 -85.6647 358° North 481 554 27,900 -1,230 Descending Indianapolis Center
Sun 08:21:48 AM 39.8172 -85.6686 359° North 479 551 26,700 -885 Descending Indianapolis Center
Sun 08:22:49 AM 39.9753 -85.6864 355° North 480 552 26,100 -344 Descending Indianapolis Center
Sun 08:23:50 AM 40.1075 -85.6942 357° North 481 554 26,000 -49 Descending Indianapolis Center
Sun 08:24:52 AM 40.2414 -85.6947 360° North 484 557 26,000 -49 Level Indianapolis Center
Sun 08:25:53 AM 40.3744 -85.6836 North 484 557 25,900 -541 Descending Indianapolis Center
Sun 08:26:54 AM 40.5056 -85.6831 360° North 476 548 24,900 -984 Descending Indianapolis Center
Sun 08:27:55 AM 40.6214 -85.7397 340° North 459 528 23,900 -537 Descending Indianapolis Center
Sun 08:28:57 AM 40.7242 -85.8350 325° Northwest 456 525 23,800 -634 Descending Indianapolis Center
Sun 08:29:58 AM 40.8303 -85.9239 328° Northwest 455 524 22,600 -1,574 Descending Indianapolis Center
Sun 08:30:59 AM 40.9558 -86.0128 332° Northwest 431 496 20,600 -1,377 Descending Indianapolis Center
Sun 08:32:00 AM 41.0594 -86.0806 334° Northwest 420 483 19,800 -1,122 Descending Indianapolis Center
Sun 08:33:02 AM 41.1547 -86.1417 334° Northwest 391 450 18,300 -1,366 Descending Indianapolis Center
Sun 08:34:03 AM 41.2383 -86.2378 319° Northwest 402 463 17,000 -1,525 Descending Indianapolis Center
Sun 08:35:04 AM 41.3114 -86.3397 314° West 389 448 15,200 -1,640 Descending Indianapolis Center
Sun 08:36:22 AM 41.4106 -86.4678 316° Northwest 366 421 13,200 -900 Descending Chicago Center
Sun 08:37:24 AM 41.4817 -86.5678 314° West 371 427 13,100 -98 Descending Chicago Center
Sun 08:38:25 AM 41.5567 -86.6592 318° Northwest 367 422 13,000 -537 Descending Chicago Center
Sun 08:39:27 AM 41.6275 -86.7483 317° Northwest 358 412 12,000 -439 Descending Chicago Center
Sun 08:40:28 AM 41.7178 -86.8044 335° Northwest 364 419 12,100 49 Climbing Chicago Center
Sun 08:41:30 AM 41.8086 -86.8589 336° Northwest 362 417 12,100 -49 Level Chicago Center
Sun 08:42:31 AM 41.9156 -86.9211 337° Northwest 356 410 12,000 -195 Descending Chicago Center
Sun 08:43:33 AM 41.9811 -86.9958 320° Northwest 337 388 11,700 -683 Descending Chicago Center
Sun 08:44:34 AM 41.9781 -87.1042 268° West 291 335 10,600 -1,220 Descending Chicago Center
Sun 08:45:36 AM 41.9831 -87.2050 274° West 272 313 9,200 -1,268 Descending Chicago Center
Sun 08:46:37 AM 41.9819 -87.3061 269° West 273 314 8,000 -683 Descending Chicago Center
Sun 08:47:39 AM 41.9814 -87.3969 270° West 249 287 7,800 -780 Descending Chicago Center
Sun 08:48:40 AM 41.9814 -87.4831 270° West 234 269 6,400 -1,366 Descending Chicago Center
Sun 08:49:42 AM 41.9836 -87.5883 272° West 236 272 5,000 -1,317 Descending Chicago Center
Sun 08:50:43 AM 41.9828 -87.6703 269° West 226 260 3,700 -1,279 Descending Chicago Center

Login

Don't have an account? Register now (free) for customized features, flight alerts, and more!